createdAt,value
2018-06-21T00:00:41.738Z,22.17
2018-06-21T00:03:09.382Z,22.19
2018-06-21T00:05:37.858Z,22.20
2018-06-21T00:08:05.789Z,22.20
2018-06-21T00:10:33.406Z,22.18
2018-06-21T00:13:01.052Z,22.20
2018-06-21T00:15:28.678Z,22.20
2018-06-21T00:17:56.590Z,22.20
2018-06-21T00:20:24.239Z,22.21
2018-06-21T00:22:51.882Z,22.23
2018-06-21T00:25:19.506Z,22.23
2018-06-21T00:27:47.491Z,22.24
2018-06-21T00:30:15.703Z,22.24
2018-06-21T00:32:44.633Z,22.23
2018-06-21T00:35:13.904Z,22.20
2018-06-21T00:37:41.822Z,22.16
2018-06-21T00:40:09.473Z,22.11
2018-06-21T00:42:37.132Z,22.05
2018-06-21T00:45:05.051Z,21.99
2018-06-21T00:47:32.680Z,21.96
2018-06-21T00:50:00.322Z,21.92
2018-06-21T00:52:29.049Z,21.89
2018-06-21T00:54:56.692Z,21.86
2018-06-21T00:57:24.395Z,21.85
2018-06-21T00:59:52.050Z,21.84
2018-06-21T01:02:19.987Z,21.81
2018-06-21T01:04:47.618Z,21.82
2018-06-21T01:07:15.259Z,21.83
2018-06-21T01:09:42.957Z,21.82
2018-06-21T01:12:10.862Z,21.80
2018-06-21T01:14:38.535Z,21.78
2018-06-21T01:17:06.172Z,21.75
2018-06-21T01:19:34.014Z,21.71
2018-06-21T01:22:01.608Z,21.67
2018-06-21T01:24:29.186Z,21.62
2018-06-21T01:26:56.855Z,21.57
2018-06-21T01:29:24.706Z,21.52
2018-06-21T01:31:52.284Z,21.49
2018-06-21T01:34:21.041Z,21.46
2018-06-21T01:36:48.613Z,21.41
2018-06-21T01:39:16.482Z,21.38
2018-06-21T01:41:44.066Z,21.34
2018-06-21T01:44:11.644Z,21.31
2018-06-21T01:46:39.197Z,21.27
2018-06-21T01:49:07.034Z,21.24
2018-06-21T01:51:34.712Z,21.22
2018-06-21T01:54:02.275Z,21.22
2018-06-21T01:56:30.102Z,21.22
2018-06-21T01:58:57.669Z,21.22
2018-06-21T02:01:25.251Z,21.23
2018-06-21T02:03:53.302Z,21.21
2018-06-21T02:06:20.879Z,21.17
2018-06-21T02:08:48.454Z,21.11
2018-06-21T02:11:16.042Z,21.07
2018-06-21T02:13:43.911Z,21.03
2018-06-21T02:16:11.510Z,20.99
2018-06-21T02:18:39.131Z,20.95
2018-06-21T02:21:06.731Z,20.90
2018-06-21T02:23:41.150Z,20.88
2018-06-21T02:26:08.742Z,20.84
2018-06-21T02:28:36.344Z,20.83
2018-06-21T02:31:04.188Z,20.83
2018-06-21T02:33:31.759Z,20.80
2018-06-21T02:35:59.335Z,20.80
2018-06-21T02:38:26.910Z,20.80
2018-06-21T02:40:54.758Z,20.77
2018-06-21T02:43:22.358Z,20.77
2018-06-21T02:45:50.050Z,20.74
2018-06-21T02:48:17.906Z,20.74
2018-06-21T02:50:45.527Z,20.74
2018-06-21T02:53:14.267Z,20.74
2018-06-21T02:55:42.487Z,20.74
2018-06-21T02:58:10.192Z,20.74
2018-06-21T03:00:38.322Z,20.73
2018-06-21T03:03:05.902Z,20.72
2018-06-21T03:05:33.502Z,20.72
2018-06-21T03:08:02.110Z,20.72
2018-06-21T03:10:29.681Z,20.71
2018-06-21T03:12:57.542Z,20.69
2018-06-21T03:15:25.150Z,20.69
2018-06-21T03:17:53.277Z,20.67
2018-06-21T03:20:21.122Z,20.64
2018-06-21T03:22:48.686Z,20.62
2018-06-21T03:25:16.898Z,20.58
2018-06-21T03:27:44.464Z,20.54
2018-06-21T03:30:12.358Z,20.51
2018-06-21T03:32:39.986Z,20.47
2018-06-21T03:35:07.561Z,20.45
2018-06-21T03:37:35.130Z,20.42
2018-06-21T03:40:03.554Z,20.39
2018-06-21T03:42:31.135Z,20.36
2018-06-21T03:44:58.725Z,20.35
2018-06-21T03:47:26.562Z,20.36
2018-06-21T03:49:54.150Z,20.36
2018-06-21T03:52:21.871Z,20.38
2018-06-21T03:54:49.458Z,20.37
2018-06-21T03:57:17.344Z,20.39
2018-06-21T03:59:44.924Z,20.39
2018-06-21T04:02:12.519Z,20.38
2018-06-21T04:04:40.378Z,20.38
2018-06-21T04:07:07.980Z,20.39
2018-06-21T04:09:36.551Z,20.39
2018-06-21T04:12:04.162Z,20.40
2018-06-21T04:14:32.024Z,20.42
2018-06-21T04:16:59.664Z,20.44
2018-06-21T04:19:27.853Z,20.44
2018-06-21T04:21:55.461Z,20.46
2018-06-21T04:24:23.322Z,20.47
2018-06-21T04:26:50.919Z,20.49
2018-06-21T04:29:18.505Z,20.48
2018-06-21T04:31:46.415Z,20.52
2018-06-21T04:34:14.006Z,20.54
2018-06-21T04:36:41.598Z,20.57
2018-06-21T04:39:10.066Z,20.58
2018-06-21T04:41:37.811Z,20.56
2018-06-21T04:44:05.410Z,20.56
2018-06-21T04:46:33.901Z,20.56
2018-06-21T04:49:01.778Z,20.55
2018-06-21T04:51:29.371Z,20.56
2018-06-21T04:53:57.256Z,20.58
2018-06-21T04:56:24.857Z,20.62
2018-06-21T04:58:52.447Z,20.66
2018-06-21T05:01:20.319Z,20.70
2018-06-21T05:03:48.949Z,20.73
2018-06-21T05:06:17.150Z,20.78
2018-06-21T05:08:45.043Z,20.79
2018-06-21T05:11:12.641Z,20.80
2018-06-21T05:13:40.243Z,20.81
2018-06-21T05:16:08.116Z,20.83
2018-06-21T05:18:35.704Z,20.85
2018-06-21T05:21:03.301Z,20.87
2018-06-21T05:23:31.170Z,20.88
2018-06-21T05:25:59.459Z,20.90
2018-06-21T05:28:27.069Z,20.93
2018-06-21T05:30:55.035Z,20.95
2018-06-21T05:33:22.631Z,20.97
2018-06-21T05:35:50.194Z,20.99
2018-06-21T05:38:18.042Z,20.99
2018-06-21T05:40:45.616Z,20.99
2018-06-21T05:43:13.207Z,20.99
2018-06-21T05:45:41.066Z,20.99
2018-06-21T05:48:08.638Z,20.98
2018-06-21T05:50:36.214Z,20.96
2018-06-21T05:53:04.262Z,20.93
2018-06-21T05:55:32.846Z,20.94
2018-06-21T05:58:00.973Z,20.96
2018-06-21T06:00:29.098Z,20.98
2018-06-21T06:02:57.862Z,20.98
2018-06-21T06:05:27.011Z,20.99
2018-06-21T06:07:55.827Z,20.99
2018-06-21T06:10:24.294Z,21.01
2018-06-21T06:12:51.870Z,20.97
2018-06-21T06:15:19.770Z,20.94
2018-06-21T06:17:47.338Z,20.92
2018-06-21T06:20:16.427Z,20.93
2018-06-21T06:22:44.553Z,20.88
2018-06-21T06:25:12.190Z,20.88
2018-06-21T06:27:39.911Z,20.84
2018-06-21T06:30:07.773Z,20.84
2018-06-21T06:32:35.358Z,20.81
2018-06-21T06:35:03.654Z,20.80
2018-06-21T06:37:31.522Z,20.79
2018-06-21T06:39:59.092Z,20.75
2018-06-21T06:42:27.280Z,20.73
2018-06-21T06:44:55.153Z,20.70
2018-06-21T06:47:22.742Z,20.67
2018-06-21T06:49:50.538Z,20.66
2018-06-21T06:52:18.410Z,20.63
2018-06-21T06:54:46.050Z,20.60
2018-06-21T06:57:13.585Z,20.58
2018-06-21T06:59:41.576Z,20.54
2018-06-21T07:02:09.162Z,20.50
2018-06-21T07:04:37.331Z,20.47
2018-06-21T07:07:05.201Z,20.42
2018-06-21T07:09:34.990Z,20.39
2018-06-21T07:12:02.645Z,20.37
2018-06-21T07:14:31.279Z,20.32
2018-06-21T07:16:59.443Z,20.28
2018-06-21T07:19:27.268Z,20.24
2018-06-21T07:21:56.083Z,20.21
2018-06-21T07:24:23.728Z,20.18
2018-06-21T07:26:52.523Z,20.13
2018-06-21T07:29:20.374Z,20.08
2018-06-21T07:31:49.143Z,20.02
2018-06-21T07:34:17.290Z,19.99
2018-06-21T07:36:45.185Z,19.95
2018-06-21T07:39:13.850Z,19.92
2018-06-21T07:41:41.422Z,19.90
2018-06-21T07:44:09.302Z,19.87
2018-06-21T07:46:37.179Z,19.85
2018-06-21T07:49:06.341Z,19.82
2018-06-21T07:51:34.222Z,19.80
2018-06-21T07:54:02.420Z,19.78
2018-06-21T07:56:31.606Z,19.77
2018-06-21T07:58:59.680Z,19.75
2018-06-21T08:01:28.111Z,19.76
2018-06-21T08:03:56.298Z,19.79
2018-06-21T08:06:23.889Z,19.82
2018-06-21T08:08:51.508Z,19.85
2018-06-21T08:11:19.368Z,19.90
2018-06-21T08:13:47.754Z,19.94
2018-06-21T08:16:18.374Z,20.00
2018-06-21T08:18:46.604Z,20.05
2018-06-21T08:21:14.413Z,20.10
2018-06-21T08:23:42.017Z,20.11
2018-06-21T08:26:09.926Z,20.12
2018-06-21T08:28:37.528Z,20.12
2018-06-21T08:31:05.126Z,20.17
2018-06-21T08:33:33.006Z,20.20
2018-06-21T08:36:00.595Z,20.24
2018-06-21T08:38:28.945Z,20.26
2018-06-21T08:40:57.406Z,20.28
2018-06-21T08:43:26.689Z,20.27
2018-06-21T08:45:54.328Z,20.22
2018-06-21T08:48:22.789Z,20.13
2018-06-21T08:50:51.252Z,20.06
2018-06-21T08:53:19.432Z,20.04
2018-06-21T08:55:48.621Z,20.02
2018-06-21T08:58:16.221Z,20.02
2018-06-21T09:00:44.492Z,20.05
2018-06-21T09:03:12.491Z,20.07
2018-06-21T09:05:40.141Z,20.10
2018-06-21T09:08:09.666Z,20.14
2018-06-21T09:10:37.550Z,20.20
2018-06-21T09:13:05.115Z,20.25
2018-06-21T09:15:35.809Z,20.29
2018-06-21T09:18:03.682Z,20.31
2018-06-21T09:20:34.316Z,20.30
2018-06-21T09:23:01.970Z,20.30
2018-06-21T09:25:30.574Z,20.28
2018-06-21T09:27:58.922Z,20.28
2018-06-21T09:30:26.547Z,20.24
2018-06-21T09:32:54.437Z,20.22
2018-06-21T09:35:22.015Z,20.18
2018-06-21T09:37:54.603Z,20.11
2018-06-21T09:40:27.442Z,20.04
2018-06-21T09:43:00.075Z,20.00
2018-06-21T09:45:32.581Z,19.93
2018-06-21T09:48:05.499Z,19.94
2018-06-21T09:56:04.220Z,19.99
2018-06-21T09:58:32.385Z,20.15
2018-06-21T10:01:04.396Z,20.19
2018-06-21T10:03:33.754Z,20.21
2018-06-21T10:06:01.526Z,20.25
2018-06-21T10:08:29.329Z,20.31
2018-06-21T10:10:58.537Z,20.36
2018-06-21T10:13:26.167Z,20.46
2018-06-21T10:15:54.903Z,20.52
2018-06-21T10:18:22.839Z,20.55
2018-06-21T10:20:50.412Z,20.53
2018-06-21T10:23:18.746Z,20.54
2018-06-21T10:25:46.606Z,20.51
2018-06-21T10:28:16.161Z,20.51
2018-06-21T10:30:44.356Z,20.54
2018-06-21T10:33:12.458Z,20.58
2018-06-21T10:35:40.052Z,20.64
2018-06-21T10:38:07.633Z,20.70
2018-06-21T10:40:36.334Z,20.77
2018-06-21T10:43:04.164Z,20.84
2018-06-21T10:45:32.134Z,20.87
2018-06-21T10:48:00.054Z,20.87
2018-06-21T10:50:27.698Z,20.90
2018-06-21T10:52:55.266Z,20.93
2018-06-21T10:55:24.468Z,20.95
2018-06-21T10:57:53.175Z,20.98
2018-06-21T11:00:21.615Z,20.99
2018-06-21T11:02:49.495Z,21.02
2018-06-21T11:05:18.289Z,21.03
2018-06-21T11:07:47.050Z,21.03
2018-06-21T11:10:15.750Z,21.02
2018-06-21T11:12:45.303Z,21.05
2018-06-21T11:15:14.690Z,21.12
2018-06-21T11:17:43.312Z,21.18
2018-06-21T11:20:12.119Z,21.22
2018-06-21T11:22:39.681Z,21.24
2018-06-21T11:25:08.070Z,21.29
2018-06-21T11:27:35.634Z,21.33
2018-06-21T11:30:05.122Z,21.37
2018-06-21T11:32:33.774Z,21.44
2018-06-21T11:35:02.047Z,21.47
2018-06-21T11:37:29.675Z,21.49
2018-06-21T11:39:57.983Z,21.51
2018-06-21T11:42:26.085Z,21.55
2018-06-21T11:44:54.262Z,21.60
2018-06-21T11:47:22.906Z,21.61
2018-06-21T11:49:50.782Z,21.62
2018-06-21T11:52:19.803Z,21.65
2018-06-21T11:54:47.661Z,21.68
2018-06-21T11:59:52.631Z,21.59
2018-06-21T12:02:20.718Z,21.59
2018-06-21T12:04:48.522Z,21.61
2018-06-21T12:07:16.556Z,21.61
2018-06-21T12:09:44.421Z,21.68
2018-06-21T12:12:12.030Z,21.76
2018-06-21T12:14:40.239Z,21.83
2018-06-21T12:17:08.111Z,21.87
2018-06-21T12:19:35.691Z,21.88
2018-06-21T12:22:03.486Z,21.86
2018-06-21T12:24:34.263Z,21.85
2018-06-21T12:27:02.699Z,21.83
2018-06-21T12:29:30.576Z,21.81
2018-06-21T12:31:59.315Z,21.83
2018-06-21T12:34:28.917Z,21.89
2018-06-21T12:36:56.593Z,21.92
2018-06-21T12:39:24.490Z,21.97
2018-06-21T12:41:52.071Z,22.04
2018-06-21T12:44:19.656Z,22.06
2018-06-21T12:46:49.369Z,22.08
2018-06-21T12:49:17.587Z,22.11
2018-06-21T12:51:46.624Z,22.17
2018-06-21T12:54:16.159Z,22.20
2018-06-21T12:56:43.741Z,22.23
2018-06-21T12:59:11.374Z,22.28
2018-06-21T13:01:39.880Z,22.32
2018-06-21T13:04:07.448Z,22.34
2018-06-21T13:06:35.650Z,22.31
2018-06-21T13:09:03.940Z,22.26
2018-06-21T13:11:31.536Z,22.21
2018-06-21T13:13:59.350Z,22.15
2018-06-21T13:16:27.238Z,22.12
2018-06-21T13:18:55.567Z,22.12
2018-06-21T13:21:23.155Z,22.16
2018-06-21T13:23:51.020Z,22.17
2018-06-21T13:26:21.465Z,22.17
2018-06-21T13:28:51.998Z,22.21
2018-06-21T13:31:19.887Z,22.23
2018-06-21T13:33:47.696Z,22.29
2018-06-21T13:36:16.527Z,22.28
2018-06-21T13:38:45.254Z,22.26
2018-06-21T13:41:12.851Z,22.23
2018-06-21T13:43:43.610Z,22.19
2018-06-21T13:46:12.423Z,22.17
2018-06-21T13:48:41.795Z,22.16
2018-06-21T13:51:10.219Z,22.16
2018-06-21T13:53:39.454Z,22.19
2018-06-21T13:56:07.806Z,22.19
2018-06-21T13:58:36.905Z,22.16
2018-06-21T14:01:07.002Z,22.13
2018-06-21T14:03:34.561Z,22.13
2018-06-21T14:06:06.530Z,22.14
2018-06-21T14:08:34.300Z,22.17
2018-06-21T14:11:04.238Z,22.18
2018-06-21T14:13:36.521Z,22.23
2018-06-21T14:16:04.843Z,22.25
2018-06-21T14:18:37.850Z,22.27
2018-06-21T14:21:08.438Z,22.27
2018-06-21T14:26:08.801Z,22.34
2018-06-21T14:28:36.434Z,22.37
2018-06-21T14:31:05.634Z,22.35
2018-06-21T14:33:34.289Z,22.31
2018-06-21T14:36:02.686Z,22.29
2018-06-21T14:38:31.388Z,22.24
2018-06-21T14:40:59.290Z,22.21
2018-06-21T14:43:26.913Z,22.20
2018-06-21T14:45:54.508Z,22.17
2018-06-21T14:48:22.412Z,22.13
2018-06-21T14:50:51.591Z,22.08
2018-06-21T14:53:19.164Z,22.00
2018-06-21T14:55:47.887Z,21.93
2018-06-21T14:58:16.126Z,21.88
2018-06-21T15:00:43.762Z,21.90
2018-06-21T15:03:11.641Z,21.92
2018-06-21T15:05:40.386Z,21.96
2018-06-21T15:08:08.922Z,21.99
2018-06-21T15:10:36.983Z,21.97
2018-06-21T15:13:05.379Z,21.88
2018-06-21T15:15:32.952Z,21.82
2018-06-21T15:18:00.812Z,21.75
2018-06-21T15:20:28.490Z,21.74
2018-06-21T15:22:56.425Z,21.72
2018-06-21T15:25:24.561Z,21.66
2018-06-21T15:27:52.296Z,21.62
2018-06-21T15:30:19.895Z,21.59
2018-06-21T15:32:51.434Z,21.57
2018-06-21T15:35:20.418Z,21.53
2018-06-21T15:37:48.015Z,21.46
2018-06-21T15:40:19.449Z,21.41
2018-06-21T15:42:47.043Z,21.37
2018-06-21T15:45:15.888Z,21.34
2018-06-21T15:47:43.827Z,21.30
2018-06-21T15:50:13.686Z,21.27
2018-06-21T15:52:41.303Z,21.27
2018-06-21T15:55:14.251Z,21.20
2018-06-21T15:57:41.861Z,21.15
2018-06-21T16:00:11.594Z,21.12
2018-06-21T16:02:39.479Z,21.09
2018-06-21T16:05:07.083Z,21.06
2018-06-21T16:07:36.036Z,21.02
2018-06-21T16:10:04.153Z,20.99
2018-06-21T16:12:33.495Z,20.93
2018-06-21T16:15:01.089Z,20.86
2018-06-21T16:17:28.955Z,20.82
2018-06-21T16:22:39.771Z,20.77
2018-06-21T16:25:07.357Z,20.74
2018-06-21T16:27:34.950Z,20.68
2018-06-21T16:30:02.871Z,20.66
2018-06-21T16:32:30.476Z,20.63
2018-06-21T16:34:58.082Z,20.62
2018-06-21T16:37:26.469Z,20.57
2018-06-21T16:39:54.254Z,20.54
2018-06-21T16:42:21.867Z,20.49
2018-06-21T16:44:51.317Z,20.37
2018-06-21T16:47:19.560Z,20.32
2018-06-21T16:49:47.438Z,20.28
2018-06-21T16:52:15.521Z,20.27
2018-06-21T16:54:44.025Z,20.29
2018-06-21T16:57:12.818Z,20.29
2018-06-21T16:59:40.656Z,20.26
2018-06-21T17:02:10.959Z,20.25
2018-06-21T17:04:40.145Z,20.23
2018-06-21T17:07:08.007Z,20.21
2018-06-21T17:09:37.193Z,20.19
2018-06-21T17:12:05.369Z,20.17
2018-06-21T17:14:34.092Z,20.15
2018-06-21T17:17:02.451Z,20.12
2018-06-21T17:19:30.040Z,20.10
2018-06-21T17:21:58.502Z,20.05
2018-06-21T17:24:26.150Z,20.02
2018-06-21T17:26:53.859Z,20.00
2018-06-21T17:29:21.719Z,19.98
2018-06-21T17:31:49.355Z,19.95
2018-06-21T17:34:18.647Z,19.93
2018-06-21T17:36:46.671Z,19.88
2018-06-21T17:39:14.169Z,19.83
2018-06-21T17:41:41.766Z,19.79
2018-06-21T17:44:10.041Z,19.77
2018-06-21T17:46:38.840Z,19.75
2018-06-21T17:49:06.424Z,19.74
2018-06-21T17:51:34.498Z,19.74
2018-06-21T17:54:02.064Z,19.74
2018-06-21T17:56:32.655Z,19.69
2018-06-21T17:59:00.566Z,19.67
2018-06-21T18:01:28.166Z,19.63
2018-06-21T18:03:56.251Z,19.62
2018-06-21T18:06:25.860Z,19.61
2018-06-21T18:08:53.482Z,19.58
2018-06-21T18:11:22.322Z,19.57
2018-06-21T18:13:50.157Z,19.56
2018-06-21T18:16:19.942Z,19.54
2018-06-21T18:18:48.609Z,19.51
2018-06-21T18:21:16.497Z,19.47
2018-06-21T18:23:45.136Z,19.43
2018-06-21T18:26:12.967Z,19.38
2018-06-21T18:28:43.710Z,19.34
2018-06-21T18:31:11.643Z,19.30
2018-06-21T18:33:41.261Z,19.28
2018-06-21T18:36:09.694Z,19.25
2018-06-21T18:38:38.088Z,19.20
2018-06-21T18:41:05.683Z,19.10
2018-06-21T18:43:36.481Z,19.01
2018-06-21T18:46:08.329Z,18.91
2018-06-21T18:48:35.936Z,18.78
2018-06-21T18:51:03.826Z,18.69
2018-06-21T18:53:31.642Z,18.58
2018-06-21T18:55:59.341Z,18.49
2018-06-21T18:58:27.242Z,18.39
2018-06-21T19:00:57.620Z,18.30
2018-06-21T19:03:26.026Z,18.22
2018-06-21T19:05:54.618Z,18.17
2018-06-21T19:08:27.247Z,18.13
2018-06-21T19:13:01.243Z,18.06
2018-06-21T19:15:29.430Z,17.95
2018-06-21T19:17:59.124Z,17.90
2018-06-21T19:20:27.414Z,17.84
2018-06-21T19:22:55.698Z,17.79
2018-06-21T19:25:25.498Z,17.75
2018-06-21T19:27:54.381Z,17.70
2018-06-21T19:30:22.818Z,17.66
2018-06-21T19:32:51.478Z,17.62
2018-06-21T19:35:19.935Z,17.58
2018-06-21T19:37:48.526Z,17.56
2018-06-21T19:40:19.320Z,17.55
2018-06-21T19:42:50.043Z,17.51
2018-06-21T19:45:18.731Z,17.48
2018-06-21T19:47:46.339Z,17.45
2018-06-21T19:50:14.721Z,17.43
2018-06-21T19:52:44.478Z,17.42
2018-06-21T19:55:15.068Z,17.41
2018-06-21T19:57:45.290Z,17.42
2018-06-21T20:00:17.914Z,17.42
2018-06-21T20:02:50.418Z,17.43
2018-06-21T20:05:21.460Z,17.45
2018-06-21T20:07:50.299Z,17.49
2018-06-21T20:10:19.406Z,17.50
2018-06-21T20:12:48.556Z,17.53
2018-06-21T20:15:19.266Z,17.52
2018-06-21T20:17:48.407Z,17.51
2018-06-21T20:20:21.658Z,17.51
2018-06-21T20:22:57.240Z,17.50
2018-06-21T20:25:25.630Z,17.50
2018-06-21T20:27:56.537Z,17.50
2018-06-21T20:30:26.164Z,17.51
2018-06-21T20:32:54.512Z,17.51
2018-06-21T20:35:23.247Z,17.52
2018-06-21T20:37:52.653Z,17.50
2018-06-21T20:40:23.719Z,17.49
2018-06-21T20:42:51.878Z,17.50
2018-06-21T20:45:21.446Z,17.50
2018-06-21T20:47:49.847Z,17.49
2018-06-21T20:50:17.813Z,17.47
2018-06-21T20:52:45.696Z,17.47
2018-06-21T20:55:13.292Z,17.44
2018-06-21T20:57:42.380Z,17.43
2018-06-21T21:00:10.273Z,17.41
2018-06-21T21:02:41.490Z,17.40
2018-06-21T21:05:15.698Z,17.40
2018-06-21T21:07:48.506Z,17.38
2018-06-21T21:10:17.431Z,17.36
2018-06-21T21:12:46.289Z,17.36
2018-06-21T21:15:16.407Z,17.33
2018-06-21T21:17:45.446Z,17.31
2018-06-21T21:20:13.818Z,17.29
2018-06-21T21:22:42.817Z,17.27
2018-06-21T21:25:13.010Z,17.28
2018-06-21T21:27:43.446Z,17.29
2018-06-21T21:30:12.540Z,17.28
2018-06-21T21:32:41.984Z,17.28
2018-06-21T21:35:10.337Z,17.28
2018-06-21T21:37:38.275Z,17.26
2018-06-21T21:40:07.038Z,17.24
2018-06-21T21:42:36.672Z,17.21
2018-06-21T21:45:06.274Z,17.16
2018-06-21T21:47:34.677Z,17.15
2018-06-21T21:50:07.656Z,17.15
2018-06-21T21:52:40.075Z,17.14
2018-06-21T21:55:07.885Z,17.13
2018-06-21T21:57:35.707Z,17.10
2018-06-21T22:00:04.449Z,17.08
2018-06-21T22:02:34.263Z,17.07
2018-06-21T22:05:04.189Z,17.04
2018-06-21T22:07:32.907Z,17.01
2018-06-21T22:10:02.559Z,16.96
2018-06-21T22:12:33.290Z,16.92
2018-06-21T22:15:01.416Z,16.86
2018-06-21T22:17:30.630Z,16.86
2018-06-21T22:19:58.206Z,16.84
2018-06-21T22:22:26.087Z,16.81
2018-06-21T22:24:53.698Z,16.79
2018-06-21T22:27:21.293Z,16.77
2018-06-21T22:29:49.142Z,16.78
2018-06-21T22:32:16.706Z,16.78
2018-06-21T22:34:45.123Z,16.76
2018-06-21T22:37:14.290Z,16.74
2018-06-21T22:39:43.410Z,16.72
2018-06-21T22:42:12.436Z,16.71
2018-06-21T22:44:41.466Z,16.68
2018-06-21T22:47:09.802Z,16.65
2018-06-21T22:49:37.642Z,16.63
2018-06-21T22:52:05.522Z,16.60
2018-06-21T22:54:33.722Z,16.55
2018-06-21T22:57:04.419Z,16.52
2018-06-21T22:59:32.865Z,16.48
2018-06-21T23:02:00.455Z,16.44
2018-06-21T23:04:28.178Z,16.41
2018-06-21T23:07:02.395Z,16.38
2018-06-21T23:09:30.706Z,16.34
2018-06-21T23:11:58.276Z,16.28
2018-06-21T23:14:26.114Z,16.24
2018-06-21T23:16:54.271Z,16.20
2018-06-21T23:19:21.834Z,16.18
2018-06-21T23:21:50.229Z,16.14
2018-06-21T23:24:17.806Z,16.08
2018-06-21T23:26:45.367Z,16.04
2018-06-21T23:29:13.870Z,16.01
2018-06-21T23:31:41.426Z,15.99
2018-06-21T23:34:09.025Z,15.97
2018-06-21T23:36:37.186Z,15.98
2018-06-21T23:39:05.243Z,15.96
2018-06-21T23:41:32.835Z,15.93
2018-06-21T23:44:00.440Z,15.89
2018-06-21T23:46:28.282Z,15.88
2018-06-21T23:48:56.656Z,15.87
2018-06-21T23:51:24.289Z,15.86
2018-06-21T23:53:52.160Z,15.86
2018-06-21T23:56:21.645Z,15.85
2018-06-21T23:58:49.250Z,15.86
